Fort Jones, CA

2:41 PM PDT on October 20, 2014 (GMT -0700)
KCAETNA3 | Change Station
CLOSE
Current Station
Personal Weather Station
Location: Island Rd, Scott Valley, CA
Elevation: 2728 ft
Nearby Weather Stations
4.2 Earthquake: Rio Dell, California (1 day ago)  

Elev 2728 ft 41.55 °N, 122.85 °W | Updated 19 seconds ago

Overcast
Overcast
61.8 °F
Feels Like 61.8 °F
N
10.0
Wind Variable Wind from South
Gusts 10.0 mph

Today
High -- | Low -- °F
--% Chance of Precip.
Yesterday
High -- | Low -- °F
Precip. -- in
7:29 AM 6:22 PM
Waning Crescent, 9% visible
Pressure 29.87 in
Visibility 10.0 miles
Clouds Overcast 4900 ft
Dew Point 44 °F
Humidity 51%
Rainfall 0.33 in
Snow Depth Not available.
UV 1 out of 12
Pollen .90 out of 12
Air Quality Not available.
Flu Activity Sporadic
METAR KSIY 202053Z AUTO 06007KT 10SM OVC049 14/09 A2987 RMK AO2 RAB29E50 SLP115 P0000 60004 T01390094 51003

More Conditions Fewer Conditions

Pressure 29.87 in
Visibility 10.0 miles
Clouds Overcast 4900 ft
Dew Point 44 °F
Humidity 51%
Rainfall 0.33 in
Snow Depth Not available.
UV 1 out of 12
Pollen .90 out of 12
Air Quality Not available.
Flu Activity Sporadic
METAR KSIY 202053Z AUTO 06007KT 10SM OVC049 14/09 A2987 RMK AO2 RAB29E50 SLP115 P0000 60004 T01390094 51003

More Conditions Fewer Conditions

10-Day Weather Forecast

Almanac

Astronomy

Oct. 20, 2014 Rise Set
Actual Time 7:29 AM PDT 6:22 PM PDT
Civil Twilight 7:01 AM PDT 6:50 PM PDT
Nautical Twilight 6:28 AM PDT 7:22 PM PDT
Astronomical Twilight 5:56 AM PDT 7:55 PM PDT
Moon 4:20 AM PDT 4:50 PM PDT
Length of Visible Light 11h 49m
Length of Day
10h 53m
Waning Crescent, 9% of the Moon is Illuminated
Today
Waning Crescent
Oct 23
New
Oct 30
First Quarter
Nov 6
Full
Nov 14
Last Quarter

Today's Extremes

State Highs State Lows

Community

WunderPhotos

Upload Photos

1,763,527 photos uploaded!

WunderBlogs® & News

Nearby

Snow Depth

Station Depth Elevation
Adin Mountain 0 in 6200 ft
Independence Lake 0 in 8450 ft
CSS Lab 1 in 6900 ft
Ward Creek #3 0 in 6750 ft
Tahoe City Cross 0 in 6750 ft

Earthquake Activity

City Distance Mag. Time & Date
Rio Dell, California 120 miles 4.2 7:24 AM PDT
2014-10-19
Minimum magnitude displayed is 2.5.

Coastal Water Temperatures

Place Temperature
No Stations Reporting

Nearby Weather Stations